Time;durP1;ratioP1;P1;durP2;ratioP2;P2;SDS_P1;SDS_P2;PMS_P1;PMS_P2;Temp;Humidity;BMP_temperature;BMP_pressure;BME280_temperature;BME280_humidity;BME280_pressure;Samples;Min_cycle;Max_cycle;Signal;HPM_P1;HPM_P2
2022/10/10 00:01:51;;;;;;;6.68;5.72;;;;;;;7.79;100.00;100481.59;5085690;28;20200;-74
2022/10/10 00:04:17;;;;;;;12.13;6.22;;;;;;;7.82;100.00;100475.25;5084724;28;20215;-73
2022/10/10 00:06:46;;;;;;;5.72;4.72;;;;;;;7.86;100.00;100476.91;5075849;28;20631;-74
2022/10/10 00:09:13;;;;;;;8.55;5.97;;;;;;;7.82;100.00;100475.25;5075916;28;20247;-73
2022/10/10 00:11:40;;;;;;;7.47;5.90;;;;;;;7.84;100.00;100476.09;5076548;28;20208;-74
2022/10/10 00:14:06;;;;;;;8.65;5.90;;;;;;;7.70;100.00;100471.16;5076226;28;20663;-74
2022/10/10 00:16:33;;;;;;;6.65;5.60;;;;;;;7.73;100.00;100469.28;5076382;28;20222;-73
2022/10/10 00:19:01;;;;;;;6.22;5.20;;;;;;;7.66;100.00;100466.84;5080349;28;20210;-74
2022/10/10 00:21:28;;;;;;;9.25;5.97;;;;;;;7.64;100.00;100458.84;5079839;28;20318;-74
2022/10/10 00:23:54;;;;;;;8.20;5.95;;;;;;;7.59;100.00;100466.16;5076072;28;20235;-73
2022/10/10 00:26:21;;;;;;;9.25;6.00;;;;;;;7.43;100.00;100476.47;5076545;28;20214;-73
2022/10/10 00:28:48;;;;;;;7.53;6.43;;;;;;;7.40;100.00;100463.19;5075970;28;20209;-72
2022/10/10 00:31:15;;;;;;;10.05;6.85;;;;;;;7.41;100.00;100464.06;5075620;28;20763;-74
2022/10/10 00:33:42;;;;;;;7.07;5.53;;;;;;;7.43;100.00;100468.44;5075321;28;20224;-73
2022/10/10 00:36:10;;;;;;;7.82;6.47;;;;;;;7.40;100.00;100463.19;5076107;28;20682;-75
2022/10/10 00:38:36;;;;;;;7.22;6.40;;;;;;;7.48;100.00;100460.25;5075299;28;20200;-72
2022/10/10 00:41:04;;;;;;;9.50;6.43;;;;;;;7.34;100.00;100459.81;5076580;28;20294;-74
2022/10/10 00:43:31;;;;;;;7.13;5.68;;;;;;;7.43;100.00;100457.72;5076170;28;20230;-74
2022/10/10 00:45:58;;;;;;;6.78;5.80;;;;;;;7.39;100.00;100457.88;5076031;28;20197;-74
2022/10/10 00:48:28;;;;;;;8.23;6.25;;;;;;;7.36;100.00;100453.50;5074185;28;20304;-74
2022/10/10 00:50:58;;;;;;;9.15;6.00;;;;;;;7.40;100.00;100454.28;5076392;28;20212;-74
2022/10/10 00:53:30;;;;;;;9.18;6.25;;;;;;;7.42;100.00;100457.78;5075911;28;20213;-74
2022/10/10 00:55:57;;;;;;;7.25;5.60;;;;;;;7.45;100.00;100460.38;5075373;28;20232;-73
2022/10/10 00:58:24;;;;;;;9.10;6.30;;;;;;;7.37;100.00;100452.56;5074849;28;20197;-74
2022/10/10 01:00:51;;;;;;;9.52;6.05;;;;;;;7.30;100.00;100457.25;5076275;28;20673;-74
2022/10/10 01:03:18;;;;;;;11.57;6.70;;;;;;;7.33;100.00;100450.91;5075260;28;20217;-74
2022/10/10 01:05:47;;;;;;;7.85;6.47;;;;;;;7.25;100.00;100447.59;5075708;28;20554;-73
2022/10/10 01:08:14;;;;;;;8.35;6.15;;;;;;;7.22;100.00;100448.56;5074536;28;20206;-73
2022/10/10 01:10:55;;;;;;;8.65;7.05;;;;;;;7.26;100.00;100455.59;5075844;28;20618;-74
2022/10/10 01:13:28;;;;;;;9.05;6.22;;;;;;;6.99;100.00;100449.25;5073732;28;20220;-75
2022/10/10 01:16:01;;;;;;;8.50;7.10;;;;;;;6.96;100.00;100452.00;5076453;28;20204;-74
2022/10/10 01:18:36;;;;;;;7.00;6.30;;;;;;;7.02;100.00;100454.50;5077204;28;20201;-74
2022/10/10 01:21:13;;;;;;;8.15;6.70;;;;;;;6.99;100.00;100451.06;5076759;28;20272;-74
2022/10/10 01:24:27;;;;;;;8.73;7.00;;;;;;;7.08;100.00;100448.97;5070461;28;20694;-74
2022/10/10 01:27:16;;;;;;;7.93;6.85;;;;;;;6.96;100.00;100435.06;5070015;28;20585;-74
2022/10/10 01:29:47;;;;;;;9.93;6.55;;;;;;;6.79;100.00;100439.13;5084898;28;20237;-73
2022/10/10 01:32:19;;;;;;;8.00;6.15;;;;;;;6.67;100.00;100440.38;5085519;28;20772;-75
2022/10/10 01:34:57;;;;;;;8.10;6.80;;;;;;;6.77;100.00;100442.78;5077706;28;20201;-74
2022/10/10 01:37:35;;;;;;;7.25;6.35;;;;;;;6.91;100.00;100439.69;5074566;28;20295;-74
2022/10/10 01:40:09;;;;;;;10.70;6.10;;;;;;;6.75;100.00;100436.59;5075327;28;20215;-74
2022/10/10 01:42:41;;;;;;;8.50;6.15;;;;;;;6.82;100.00;100435.50;5075111;28;20557;-73
2022/10/10 01:45:10;;;;;;;10.60;6.68;;;;;;;6.76;100.00;100441.91;5078372;28;20187;-73
2022/10/10 01:47:37;;;;;;;7.75;5.70;;;;;;;6.66;100.00;100438.59;5078883;28;20189;-73
2022/10/10 01:50:08;;;;;;;11.23;7.68;;;;;;;6.62;100.00;100436.94;5077718;28;20216;-74
2022/10/10 01:52:47;;;;;;;9.73;7.35;;;;;;;6.60;100.00;100432.53;5061112;28;20220;-74
2022/10/10 01:55:26;;;;;;;11.65;6.15;;;;;;;6.67;100.00;100431.44;5076289;28;20185;-74
2022/10/10 01:58:14;;;;;;;11.02;7.13;;;;;;;6.61;100.00;100429.84;5074089;28;20276;-73
2022/10/10 02:00:48;;;;;;;7.80;6.20;;;;;;;6.48;100.00;100429.28;5075364;28;20228;-74
2022/10/10 02:03:19;;;;;;;10.20;6.63;;;;;;;6.57;100.00;100429.97;5073989;28;20221;-74
2022/10/10 02:05:51;;;;;;;9.20;6.00;;;;;;;6.57;100.00;100428.16;5073857;28;20197;-73
2022/10/10 02:08:24;;;;;;;9.80;6.35;;;;;;;6.59;100.00;100428.13;5073613;28;20676;-73
2022/10/10 02:10:54;;;;;;;6.85;6.15;;;;;;;6.58;100.00;100423.69;5075638;28;20665;-73
2022/10/10 02:13:25;;;;;;;10.38;6.97;;;;;;;6.57;100.00;100421.94;5078031;28;20218;-73
2022/10/10 02:15:57;;;;;;;9.85;6.40;;;;;;;6.46;100.00;100415.06;5078859;28;20249;-74
2022/10/10 02:18:28;;;;;;;7.93;6.30;;;;;;;6.50;100.00;100412.34;5074205;28;20185;-73
2022/10/10 02:20:56;;;;;;;10.10;7.10;;;;;;;6.39;100.00;100410.81;5073825;28;20208;-74
2022/10/10 02:23:22;;;;;;;8.93;6.25;;;;;;;6.41;100.00;100413.47;5074830;28;20740;-74
2022/10/10 02:25:52;;;;;;;11.68;7.82;;;;;;;6.44;100.00;100413.38;5079004;28;20232;-73
2022/10/10 02:28:25;;;;;;;13.00;7.03;;;;;;;6.43;100.00;100409.81;5079281;28;20562;-73
2022/10/10 02:31:01;;;;;;;9.57;6.50;;;;;;;6.51;100.00;100406.06;5085285;28;20200;-73
2022/10/10 02:33:38;;;;;;;8.63;6.38;;;;;;;6.47;100.00;100403.47;5083108;28;20608;-73
2022/10/10 02:36:05;;;;;;;14.20;7.07;;;;;;;6.33;100.00;100396.75;5081785;28;20268;-74
2022/10/10 02:38:32;;;;;;;8.10;6.75;;;;;;;6.38;100.00;100406.41;5062677;28;20192;-72
2022/10/10 02:41:02;;;;;;;11.25;7.60;;;;;;;6.30;100.00;100411.09;5075165;28;20574;-73
2022/10/10 02:43:31;;;;;;;9.65;6.47;;;;;;;6.30;100.00;100404.88;5076792;28;20262;-74
2022/10/10 02:46:02;;;;;;;8.02;6.28;;;;;;;6.32;100.00;100401.22;5080369;28;20207;-74
2022/10/10 02:48:28;;;;;;;10.82;6.50;;;;;;;6.28;100.00;100399.56;5075860;28;20181;-74
2022/10/10 02:50:56;;;;;;;9.65;6.95;;;;;;;6.23;100.00;100401.47;5080527;28;20212;-73
2022/10/10 02:53:22;;;;;;;9.98;7.03;;;;;;;6.32;100.00;100401.22;5078676;28;20218;-73
2022/10/10 02:55:49;;;;;;;11.25;6.22;;;;;;;6.26;100.00;100396.94;5078600;28;20204;-74
2022/10/10 02:58:15;;;;;;;10.93;6.50;;;;;;;6.20;100.00;100401.56;5077567;28;20313;-74
2022/10/10 03:00:42;;;;;;;8.70;6.40;;;;;;;6.23;100.00;100396.13;5077763;28;20197;-73
2022/10/10 03:03:10;;;;;;;9.40;6.72;;;;;;;6.15;100.00;100403.47;5077355;28;20238;-73
2022/10/10 03:05:36;;;;;;;8.23;7.25;;;;;;;6.13;100.00;100399.97;5077399;28;20706;-73
2022/10/10 03:08:03;;;;;;;9.00;6.65;;;;;;;6.16;100.00;100399.91;5065907;28;20189;-74
2022/10/10 03:10:29;;;;;;;10.20;6.93;;;;;;;6.14;100.00;100396.38;5062430;28;20688;-73
2022/10/10 03:12:56;;;;;;;9.65;7.00;;;;;;;6.21;100.00;100396.16;5077360;28;20228;-75
2022/10/10 03:15:23;;;;;;;11.75;6.82;;;;;;;6.22;100.00;100405.09;5076432;28;20201;-73
2022/10/10 03:17:50;;;;;;;8.45;6.18;;;;;;;6.18;100.00;100400.75;5075916;28;20217;-73
2022/10/10 03:20:18;;;;;;;8.98;6.63;;;;;;;6.05;100.00;100397.50;5075428;28;20740;-74
2022/10/10 03:22:45;;;;;;;35.92;24.40;;;;;;;6.00;100.00;100400.31;5076245;28;20228;-74
2022/10/10 03:25:11;;;;;;;14.15;10.48;;;;;;;5.98;100.00;100404.81;5076651;28;20662;-76
2022/10/10 03:27:38;;;;;;;9.10;7.05;;;;;;;5.93;100.00;100401.34;5076586;28;20193;-73
2022/10/10 03:30:05;;;;;;;13.23;7.18;;;;;;;6.00;100.00;100407.47;5076656;28;20280;-74
2022/10/10 03:32:32;;;;;;;8.50;7.00;;;;;;;5.99;100.00;100408.34;5076257;28;20224;-74
2022/10/10 03:34:59;;;;;;;10.60;7.00;;;;;;;6.05;100.00;100410.88;5076284;28;20260;-74
2022/10/10 03:37:27;;;;;;;10.05;6.95;;;;;;;5.96;100.00;100406.66;5075851;28;20601;-74
2022/10/10 03:39:53;;;;;;;11.63;7.05;;;;;;;5.96;100.00;100413.78;5076355;28;20200;-74
2022/10/10 03:42:20;;;;;;;7.43;6.38;;;;;;;5.89;100.00;100407.69;5076391;28;20217;-74
2022/10/10 03:44:46;;;;;;;11.75;6.05;;;;;;;5.81;100.00;100410.59;5076742;28;20571;-73
2022/10/10 03:47:13;;;;;;;7.45;6.60;;;;;;;5.88;100.00;100397.03;5075816;28;20231;-73
2022/10/10 03:49:39;;;;;;;9.90;7.63;;;;;;;5.90;100.00;100409.47;5077937;28;20210;-75
2022/10/10 03:52:06;;;;;;;8.70;6.75;;;;;;;6.01;100.00;100409.19;5078545;28;20228;-75
2022/10/10 03:54:34;;;;;;;50.03;32.97;;;;;;;5.98;100.00;100406.63;5076494;28;20569;-73
2022/10/10 03:57:00;;;;;;;21.58;15.52;;;;;;;5.96;100.00;100403.97;5076328;28;20216;-74
2022/10/10 03:59:27;;;;;;;14.75;9.25;;;;;;;5.97;100.00;100394.16;5076715;28;20193;-74
2022/10/10 04:01:54;;;;;;;11.30;6.68;;;;;;;5.88;100.00;100397.03;5079278;28;20665;-73
2022/10/10 04:04:21;;;;;;;8.57;6.55;;;;;;;5.83;100.00;100397.16;5061057;28;20205;-73
2022/10/10 04:06:47;;;;;;;9.48;6.47;;;;;;;5.83;100.00;100395.38;5071176;28;20192;-74
2022/10/10 04:09:14;;;;;;;23.75;15.07;;;;;;;5.91;100.00;100392.50;5075162;28;20685;-74
2022/10/10 04:11:42;;;;;;;59.25;36.90;;;;;;;5.94;100.00;100392.44;5075930;28;20201;-73
2022/10/10 04:14:08;;;;;;;22.55;15.20;;;;;;;5.89;100.00;100398.81;5078423;28;20193;-73
2022/10/10 04:16:35;;;;;;;12.13;7.35;;;;;;;5.94;100.00;100389.75;5082370;28;20199;-74
2022/10/10 04:19:01;;;;;;;11.75;6.57;;;;;;;5.96;100.00;100387.94;5085687;28;20646;-73
2022/10/10 04:21:28;;;;;;;8.95;6.30;;;;;;;5.77;100.00;100383.97;5080333;28;20205;-75
2022/10/10 04:23:55;;;;;;;8.98;6.65;;;;;;;5.79;100.00;100388.34;5059335;28;20217;-73
2022/10/10 04:26:21;;;;;;;8.75;6.03;;;;;;;5.79;100.00;100385.69;5070012;28;20193;-74
2022/10/10 04:28:49;;;;;;;8.05;6.53;;;;;;;5.80;100.00;100386.56;5074928;28;20208;-72
2022/10/10 04:31:16;;;;;;;8.32;6.57;;;;;;;5.82;100.00;100390.06;5074910;28;20203;-74
2022/10/10 04:33:42;;;;;;;8.18;6.43;;;;;;;5.82;100.00;100390.06;5072710;28;20229;-73
2022/10/10 04:36:09;;;;;;;8.00;6.50;;;;;;;5.73;100.00;100401.88;5060030;28;20568;-73
2022/10/10 04:38:36;;;;;;;9.50;5.90;;;;;;;5.78;100.00;100401.75;5054974;28;20221;-74
2022/10/10 04:41:02;;;;;;;10.50;5.97;;;;;;;5.73;100.00;100401.00;5054991;28;20205;-74
2022/10/10 04:43:29;;;;;;;8.13;6.55;;;;;;;5.78;100.00;100399.06;5054895;28;20363;-73
2022/10/10 04:45:57;;;;;;;9.45;6.40;;;;;;;5.74;100.00;100403.59;5054835;28;20209;-74
2022/10/10 04:48:24;;;;;;;8.55;6.03;;;;;;;5.77;100.00;100398.22;5055325;28;20288;-73
2022/10/10 04:50:55;;;;;;;10.20;7.00;;;;;;;5.83;100.00;100397.16;5055108;28;20416;-73
2022/10/10 04:53:22;;;;;;;9.43;7.13;;;;;;;5.72;100.00;100408.16;5054978;28;20773;-74
2022/10/10 04:55:48;;;;;;;11.10;7.20;;;;;;;5.58;100.00;100408.47;5054877;28;20667;-74
2022/10/10 04:58:16;;;;;;;28.15;19.67;;;;;;;5.58;100.00;100412.94;5054608;28;20221;-75
2022/10/10 05:00:43;;;;;;;17.33;13.07;;;;;;;5.60;100.00;100414.66;5054967;28;20606;-74
2022/10/10 05:03:12;;;;;;;12.05;8.32;;;;;;;5.57;100.00;100422.75;5054946;28;20225;-75
2022/10/10 05:05:39;;;;;;;14.30;7.93;;;;;;;5.59;100.00;100412.91;5054749;28;20288;-73
2022/10/10 05:08:07;;;;;;;9.60;7.28;;;;;;;5.59;100.00;100410.22;5053884;28;20215;-73
2022/10/10 05:10:35;;;;;;;9.88;7.35;;;;;;;5.58;100.00;100415.59;5068851;28;20219;-75
2022/10/10 05:13:02;;;;;;;8.95;7.50;;;;;;;5.56;100.00;100410.31;5055102;28;20746;-76
2022/10/10 05:15:29;;;;;;;11.73;8.05;;;;;;;5.58;100.00;100412.94;5055201;28;20197;-76
2022/10/10 05:17:55;;;;;;;11.20;7.40;;;;;;;5.69;100.00;100407.34;5065309;28;20609;-75
2022/10/10 05:20:23;;;;;;;12.18;8.63;;;;;;;5.64;100.00;100408.31;5075577;28;20200;-74
2022/10/10 05:22:50;;;;;;;11.88;8.38;;;;;;;5.55;100.00;100410.34;5077109;28;20569;-75
2022/10/10 05:25:16;;;;;;;16.20;10.43;;;;;;;5.53;100.00;100405.03;5076975;28;20208;-75
2022/10/10 05:27:43;;;;;;;15.27;10.20;;;;;;;5.62;100.00;100407.47;5077491;28;20197;-74
2022/10/10 05:30:10;;;;;;;15.20;9.00;;;;;;;5.66;100.00;100415.44;5078513;28;20211;-74
2022/10/10 05:32:37;;;;;;;39.95;23.10;;;;;;;5.66;100.00;100416.31;5077124;28;20671;-74
2022/10/10 05:35:05;;;;;;;14.35;12.50;;;;;;;5.58;100.00;100410.25;5076189;28;20688;-76
2022/10/10 05:37:33;;;;;;;19.00;10.55;;;;;;;5.63;100.00;100411.91;5075493;28;20232;-75
2022/10/10 05:40:00;;;;;;;14.55;10.88;;;;;;;5.51;100.00;100409.53;5075660;28;20201;-74
2022/10/10 05:42:26;;;;;;;14.48;11.13;;;;;;;5.52;100.00;100418.44;5075539;28;20227;-74
2022/10/10 05:44:53;;;;;;;15.57;12.50;;;;;;;5.60;100.00;100414.66;5076026;28;20222;-74
2022/10/10 05:47:19;;;;;;;16.63;12.50;;;;;;;5.51;100.00;100414.00;5075461;28;20583;-75
2022/10/10 05:49:46;;;;;;;26.15;16.20;;;;;;;5.63;100.00;100411.91;5075547;28;20201;-75
2022/10/10 05:52:13;;;;;;;26.58;16.80;;;;;;;5.75;100.00;100416.06;5075614;28;20220;-75
2022/10/10 05:54:40;;;;;;;17.02;11.60;;;;;;;5.87;100.00;100404.19;5075006;28;20208;-75
2022/10/10 05:57:07;;;;;;;14.93;10.18;;;;;;;5.73;100.00;100411.69;5074138;28;20217;-74
2022/10/10 05:59:33;;;;;;;15.20;11.68;;;;;;;5.74;100.00;100411.63;5074141;28;20209;-75
2022/10/10 06:02:00;;;;;;;15.05;10.43;;;;;;;5.70;100.00;100418.00;5073857;28;20268;-72
2022/10/10 06:04:27;;;;;;;50.20;34.30;;;;;;;5.72;100.00;100418.84;5074146;28;20662;-74
2022/10/10 06:06:53;;;;;;;88.78;56.50;;;;;;;5.75;100.00;100407.19;5074618;28;20200;-74
2022/10/10 06:09:20;;;;;;;77.28;45.55;;;;;;;5.79;100.00;100420.44;5074455;28;20584;-75
2022/10/10 06:11:47;;;;;;;28.38;21.05;;;;;;;5.80;100.00;100423.97;5075652;28;20580;-74
2022/10/10 06:14:14;;;;;;;16.23;12.80;;;;;;;5.78;100.00;100420.47;5075506;28;20208;-75
2022/10/10 06:16:42;;;;;;;15.00;12.25;;;;;;;5.89;100.00;100423.72;5074969;28;20205;-74
2022/10/10 06:19:08;;;;;;;18.00;12.60;;;;;;;5.99;100.00;100425.31;5078048;28;20732;-74
2022/10/10 06:21:35;;;;;;;15.02;12.13;;;;;;;5.97;100.00;100424.47;5082955;28;20634;-75
2022/10/10 06:24:01;;;;;;;14.63;10.40;;;;;;;5.96;100.00;100417.34;5085753;28;20231;-73
2022/10/10 06:26:28;;;;;;;11.93;10.48;;;;;;;6.15;100.00;100423.09;5083014;28;20267;-75
2022/10/10 06:28:56;;;;;;;14.13;11.10;;;;;;;6.50;100.00;100423.03;5082384;28;20221;-74
2022/10/10 06:31:22;;;;;;;12.80;11.30;;;;;;;7.05;100.00;100434.78;5080852;28;20201;-74
2022/10/10 06:33:49;;;;;;;10.38;9.27;;;;;;;7.35;100.00;100424.06;5078943;28;20236;-72
2022/10/10 06:36:16;;;;;;;10.50;8.63;;;;;;;7.57;100.00;100433.16;5077643;28;20196;-74
2022/10/10 06:38:45;;;;;;;9.95;7.95;;;;;;;8.03;100.00;100428.09;5075513;28;20593;-74
2022/10/10 06:41:12;;;;;;;12.88;9.95;;;;;;;8.59;100.00;100445.81;5075920;28;20197;-74
2022/10/10 06:43:40;;;;;;;11.52;9.45;;;;;;;8.92;100.00;100441.00;5075804;28;20228;-75
2022/10/10 06:46:09;;;;;;;10.50;8.20;;;;;;;8.72;100.00;100425.63;5075977;28;20234;-73
2022/10/10 06:48:35;;;;;;;10.95;9.20;;;;;;;9.08;100.00;100443.97;5086774;28;20195;-73
2022/10/10 06:51:04;;;;;;;12.07;10.73;;;;;;;9.40;100.00;100432.81;5083158;28;20209;-74
2022/10/10 06:53:31;;;;;;;9.80;8.13;;;;;;;10.02;100.00;100435.69;5074076;28;20716;-73
2022/10/10 06:55:58;;;;;;;8.98;7.28;;;;;;;10.47;100.00;100445.44;5073487;28;20200;-74
2022/10/10 06:58:25;;;;;;;8.00;6.82;;;;;;;10.85;100.00;100448.22;5073929;28;20292;-74
2022/10/10 07:00:53;;;;;;;29.88;21.92;;;;;;;11.42;100.00;100448.25;5073386;28;20292;-72
2022/10/10 07:03:21;;;;;;;18.48;14.35;;;;;;;12.33;100.00;100451.88;5073573;28;20224;-73
2022/10/10 07:05:52;;;;;;;13.38;10.02;;;;;;;12.04;100.00;100451.53;5072889;28;20306;-74
2022/10/10 07:08:19;;;;;;;12.68;8.27;;;;;;;11.69;100.00;100449.63;5073103;28;20640;-74
2022/10/10 07:10:46;;;;;;;9.80;8.02;;;;;;;11.20;100.00;100451.97;5072853;28;20228;-73
2022/10/10 07:13:13;;;;;;;11.52;7.57;;;;;;;10.64;100.00;100455.44;5072454;28;20733;-73
2022/10/10 07:15:40;;;;;;;12.18;8.23;;;;;;;10.15;100.00;100450.38;5073756;28;20245;-73
2022/10/10 07:18:07;;;;;;;12.15;8.77;;;;;;;10.13;100.00;100454.94;5073006;28;20220;-74
2022/10/10 07:20:35;;;;;;;17.50;7.57;;;;;;;10.33;100.00;100454.09;5074758;28;20558;-73
2022/10/10 07:23:03;;;;;;;13.38;7.25;;;;;;;10.32;100.00;100463.13;5072674;28;20271;-72
2022/10/10 07:25:29;;;;;;;13.95;8.40;;;;;;;10.89;100.00;100465.13;5073150;28;20566;-73
2022/10/10 07:27:56;;;;;;;10.35;6.82;;;;;;;11.55;100.00;100470.09;5072975;28;20308;-73
2022/10/10 07:30:23;;;;;;;7.57;6.75;;;;;;;12.54;100.00;100468.78;5075318;28;20710;-73
2022/10/10 07:32:50;;;;;;;9.10;7.05;;;;;;;13.26;100.00;100473.00;5076618;28;20264;-74
2022/10/10 07:35:16;;;;;;;7.65;6.85;;;;;;;13.81;100.00;100475.31;5077032;28;20571;-74
2022/10/10 07:37:44;;;;;;;8.10;6.82;;;;;;;13.61;100.00;100467.47;5077245;28;20200;-74
2022/10/10 07:40:11;;;;;;;7.60;6.50;;;;;;;14.15;100.00;100478.75;5079613;28;20212;-73
2022/10/10 07:42:38;;;;;;;8.13;6.05;;;;;;;14.65;95.16;100471.31;5077925;28;20572;-75
2022/10/10 07:45:06;;;;;;;10.77;6.57;;;;;;;14.80;93.28;100473.94;5076547;28;20201;-73
2022/10/10 07:47:32;;;;;;;10.05;6.63;;;;;;;13.95;97.67;100480.81;5075718;28;20232;-74
2022/10/10 07:49:59;;;;;;;8.70;5.90;;;;;;;13.55;100.00;100482.22;5076618;28;20203;-76
2022/10/10 07:52:25;;;;;;;6.57;5.95;;;;;;;13.49;100.00;100491.56;5076118;28;20315;-74
2022/10/10 07:54:53;;;;;;;9.13;6.53;;;;;;;12.97;100.00;100483.56;5075930;28;20196;-74
2022/10/10 07:57:19;;;;;;;9.68;6.38;;;;;;;13.14;100.00;100485.38;5076132;28;20196;-74
2022/10/10 07:59:46;;;;;;;8.20;6.50;;;;;;;14.24;100.00;100482.75;5076528;28;20587;-74
2022/10/10 08:02:13;;;;;;;7.63;6.03;;;;;;;15.24;93.29;100483.00;5075780;28;20220;-74
2022/10/10 08:04:39;;;;;;;7.50;6.20;;;;;;;16.07;88.82;100482.16;5075730;28;20634;-73
2022/10/10 08:07:06;;;;;;;9.55;5.85;;;;;;;16.75;81.78;100483.84;5074979;28;20204;-73
2022/10/10 08:09:33;;;;;;;8.05;6.53;;;;;;;18.04;71.53;100471.81;5075638;28;20210;-73
2022/10/10 08:12:01;;;;;;;7.93;6.25;;;;;;;18.99;64.21;100478.13;5075667;28;20250;-73
2022/10/10 08:14:27;;;;;;;10.63;6.40;;;;;;;19.20;61.61;100485.59;5075638;28;20204;-74
2022/10/10 08:16:54;;;;;;;9.10;6.60;;;;;;;19.55;61.98;100483.59;5075701;28;20445;-75
2022/10/10 08:19:20;;;;;;;8.60;6.20;;;;;;;20.36;57.77;100472.38;5075490;28;20486;-73
2022/10/10 08:21:47;;;;;;;9.50;6.03;;;;;;;21.74;52.87;100476.69;5075800;28;20794;-74
2022/10/10 08:24:13;;;;;;;8.23;6.30;;;;;;;22.64;49.64;100474.81;5076107;28;20438;-73
2022/10/10 08:26:40;;;;;;;9.13;6.90;;;;;;;23.22;46.25;100479.31;5075711;28;20477;-73
2022/10/10 08:29:08;;;;;;;6.13;5.47;;;;;;;24.05;45.20;100479.38;5075779;28;20807;-75
2022/10/10 08:31:34;;;;;;;8.17;6.50;;;;;;;24.75;43.25;100482.31;5075695;28;20522;-75
2022/10/10 08:34:01;;;;;;;8.60;6.40;;;;;;;24.89;41.92;100487.25;5077303;28;20467;-74
2022/10/10 08:36:27;;;;;;;6.50;5.83;;;;;;;25.42;40.41;100488.16;5081291;28;20439;-73
2022/10/10 08:38:56;;;;;;;7.40;6.43;;;;;;;24.59;41.85;100474.78;5068789;28;20549;-73
2022/10/10 08:41:35;;;;;;;9.13;7.40;;;;;;;24.55;42.92;100465.97;5080769;28;20439;-75
2022/10/10 08:44:05;;;;;;;9.70;7.67;;;;;;;25.24;41.90;100473.59;5076268;28;20470;-73
2022/10/10 08:46:39;;;;;;;9.37;7.87;;;;;;;23.48;44.49;100477.63;5057273;28;20493;-74
2022/10/10 08:49:17;;;;;;;8.97;8.00;;;;;;;24.16;44.58;100470.91;5074773;28;20426;-74
2022/10/10 08:51:50;;;;;;;11.37;8.87;;;;;;;24.22;43.12;100478.56;5074819;28;20944;-75
2022/10/10 08:54:19;;;;;;;11.27;10.07;;;;;;;21.72;51.40;100477.84;5074848;28;20429;-74
2022/10/10 08:56:47;;;;;;;18.93;10.90;;;;;;;19.83;60.42;100458.63;5075204;28;20816;-73
2022/10/10 08:59:20;;;;;;;10.27;9.17;;;;;;;18.38;72.25;100463.81;5074894;28;20474;-75
2022/10/10 09:01:51;;;;;;;10.43;9.30;;;;;;;18.89;70.71;100464.34;5074665;28;20423;-74
2022/10/10 09:04:19;;;;;;;11.33;9.67;;;;;;;19.27;66.03;100460.41;5074634;28;20411;-74
2022/10/10 09:07:00;;;;;;;12.10;8.80;;;;;;;18.18;73.68;100455.31;5074757;28;20442;-73
2022/10/10 09:09:36;;;;;;;10.30;8.70;;;;;;;17.62;79.02;100461.28;5074255;28;20418;-74
2022/10/10 09:12:15;;;;;;;10.20;9.00;;;;;;;18.29;75.48;100452.63;5074976;28;20477;-73
2022/10/10 09:14:51;;;;;;;8.60;7.70;;;;;;;19.71;65.46;100453.19;5074498;28;20454;-74
2022/10/10 09:17:32;;;;;;;10.63;8.83;;;;;;;19.08;68.90;100457.41;5074461;28;20852;-72
2022/10/10 09:20:11;;;;;;;9.40;7.20;;;;;;;18.66;74.06;100451.63;5074272;28;20474;-73
2022/10/10 09:22:46;;;;;;;11.80;8.20;;;;;;;19.79;65.92;100453.44;5074167;28;20469;-73
2022/10/10 09:25:18;;;;;;;9.80;7.57;;;;;;;21.19;59.58;100457.00;5074402;28;20813;-73
2022/10/10 09:27:56;;;;;;;7.80;7.00;;;;;;;22.33;55.56;100443.91;5074172;28;20434;-75
2022/10/10 09:30:24;;;;;;;8.93;6.90;;;;;;;23.17;50.08;100457.78;5074273;28;20847;-74
2022/10/10 09:32:58;;;;;;;8.17;7.33;;;;;;;22.43;51.74;100461.22;5073240;28;20471;-74
2022/10/10 09:35:27;;;;;;;7.70;6.90;;;;;;;21.96;55.13;100458.28;5073618;28;20796;-74
2022/10/10 09:38:00;;;;;;;10.03;7.80;;;;;;;20.74;60.33;100449.09;5079398;28;20940;-74
2022/10/10 09:40:30;;;;;;;11.20;7.33;;;;;;;19.67;68.15;100459.91;5079668;28;20490;-73
2022/10/10 09:42:56;;;;;;;10.30;7.80;;;;;;;19.94;68.32;100458.59;5076935;28;20512;-74
2022/10/10 09:45:28;;;;;;;7.83;7.03;;;;;;;20.41;64.77;100454.56;5075589;28;20952;-74
2022/10/10 09:47:56;;;;;;;7.93;6.90;;;;;;;21.04;62.50;100460.06;5056652;28;20422;-73
2022/10/10 09:50:24;;;;;;;10.10;7.63;;;;;;;20.41;64.21;100460.03;5074275;28;20443;-74
2022/10/10 09:52:52;;;;;;;7.10;6.40;;;;;;;21.16;61.18;100462.72;5056388;28;20450;-74
2022/10/10 09:55:25;;;;;;;9.20;7.00;;;;;;;20.10;66.15;100463.66;5084659;28;20442;-74
2022/10/10 09:57:53;;;;;;;7.67;6.97;;;;;;;18.80;76.05;100466.94;5080247;28;20454;-74
2022/10/10 10:00:32;;;;;;;7.87;7.07;;;;;;;17.86;84.80;100463.19;5097674;28;20530;-74
2022/10/10 10:03:11;;;;;;;8.00;7.03;;;;;;;18.14;84.79;100456.53;5097968;28;20466;-73
2022/10/10 10:05:39;;;;;;;9.50;8.00;;;;;;;18.00;85.10;100457.59;5097599;28;20435;-72
2022/10/10 10:08:17;;;;;;;9.40;8.40;;;;;;;17.66;87.86;100457.34;5097666;28;20437;-73
2022/10/10 10:10:43;;;;;;;10.67;8.37;;;;;;;17.75;88.78;100476.69;5097860;28;20422;-73
2022/10/10 10:13:13;;;;;;;10.67;7.20;;;;;;;18.43;82.82;100462.47;5085335;28;20983;-74
2022/10/10 10:15:49;;;;;;;10.70;7.67;;;;;;;18.90;78.35;100465.22;5080560;28;20447;-74
2022/10/10 10:18:26;;;;;;;12.87;7.97;;;;;;;18.85;78.14;100462.00;5075093;28;20803;-74
2022/10/10 10:20:55;;;;;;;10.70;8.50;;;;;;;18.79;80.50;100460.63;5073753;28;20809;-74
2022/10/10 10:23:23;;;;;;;10.00;7.00;;;;;;;19.24;77.18;100463.38;5075474;28;20462;-73
2022/10/10 10:25:57;;;;;;;9.73;7.40;;;;;;;19.68;75.36;100469.81;5075683;28;20451;-74
2022/10/10 10:28:25;;;;;;;13.27;8.43;;;;;;;18.78;82.76;100467.06;5075867;28;20400;-75
2022/10/10 10:30:53;;;;;;;11.23;7.80;;;;;;;18.55;84.70;100463.38;5080549;28;20969;-74
2022/10/10 10:33:37;;;;;;;13.03;10.60;;;;;;;18.29;89.84;100454.47;5091865;22;20986;-75
2022/10/10 10:36:18;;;;;;;15.80;11.90;;;;;;;18.19;91.19;100459.78;5075398;28;20426;-73
2022/10/10 10:38:52;;;;;;;9.97;7.70;;;;;;;18.92;86.71;100464.09;5074009;28;20932;-75
2022/10/10 10:41:27;;;;;;;13.53;8.83;;;;;;;19.22;83.37;100459.03;5074315;28;20942;-74
2022/10/10 10:44:24;;;;;;;14.37;7.83;;;;;;;19.88;79.43;100457.28;5074467;28;21005;-76
2022/10/10 10:47:04;;;;;;;11.03;8.00;;;;;;;20.66;76.27;100457.97;5012496;28;20484;-75
2022/10/10 10:49:37;;;;;;;9.50;7.43;;;;;;;22.05;65.57;100457.44;5011435;28;20785;-74
2022/10/10 10:52:33;;;;;;;8.40;6.73;;;;;;;22.74;61.20;100453.69;5011704;28;20920;-73
2022/10/10 10:55:14;;;;;;;10.27;6.70;;;;;;;23.42;59.14;100452.63;5006837;28;20453;-73
2022/10/10 10:57:51;;;;;;;8.00;7.00;;;;;;;24.33;54.77;100459.06;5010956;28;20455;-74
2022/10/10 11:00:19;;;;;;;9.47;7.03;;;;;;;23.49;58.07;100454.66;5011790;28;20472;-75
2022/10/10 11:03:01;;;;;;;9.40;6.70;;;;;;;22.67;62.98;100452.53;5011250;28;20442;-74
2022/10/10 11:05:42;;;;;;;9.83;8.13;;;;;;;21.44;71.33;100452.94;4998497;28;20428;-74
2022/10/10 11:08:26;;;;;;;9.80;6.80;;;;;;;21.26;72.01;100455.44;5015754;28;20485;-73
2022/10/10 11:11:02;;;;;;;9.20;7.70;;;;;;;21.75;70.63;100453.75;5015545;28;21002;-74
2022/10/10 11:13:39;;;;;;;8.00;7.20;;;;;;;21.75;71.27;100447.41;5015464;28;20456;-75
2022/10/10 11:16:12;;;;;;;9.47;7.20;;;;;;;21.91;68.43;100445.00;5015416;28;20447;-75
2022/10/10 11:18:45;;;;;;;11.63;6.90;;;;;;;21.92;68.59;100445.88;5015045;28;20939;-75
2022/10/10 11:21:17;;;;;;;8.67;7.83;;;;;;;22.50;65.67;100440.44;5015561;28;20436;-74
2022/10/10 11:23:47;;;;;;;9.43;6.40;;;;;;;23.37;60.72;100431.13;5075777;28;20462;-75
2022/10/10 11:26:21;;;;;;;7.60;6.90;;;;;;;22.68;65.42;100437.78;5077614;28;20441;-73
2022/10/10 11:28:53;;;;;;;9.43;7.83;;;;;;;23.21;63.66;100434.50;5075871;28;20943;-75
2022/10/10 11:31:26;;;;;;;7.10;6.40;;;;;;;24.39;57.67;100429.16;5077948;28;20442;-74